sensor_id;sensor_type;location;lat;lon;timestamp;P1;durP1;ratioP1;P2;durP2;ratioP2
5762;SDS011;2906;53.282;9.508;2024-03-02T00:00:25;15.60;;;10.20;;
5762;SDS011;2906;53.282;9.508;2024-03-02T00:01:27;17.88;;;11.43;;
5762;SDS011;2906;53.282;9.508;2024-03-02T00:02:31;14.70;;;9.75;;
5762;SDS011;2906;53.282;9.508;2024-03-02T00:03:32;17.70;;;10.57;;
5762;SDS011;2906;53.282;9.508;2024-03-02T00:04:34;25.08;;;11.90;;
5762;SDS011;2906;53.282;9.508;2024-03-02T00:05:37;15.98;;;10.15;;
5762;SDS011;2906;53.282;9.508;2024-03-02T00:06:40;17.77;;;10.48;;
5762;SDS011;2906;53.282;9.508;2024-03-02T00:07:41;17.50;;;11.40;;
5762;SDS011;2906;53.282;9.508;2024-03-02T00:08:43;16.48;;;10.60;;
5762;SDS011;2906;53.282;9.508;2024-03-02T00:09:46;19.45;;;11.00;;
5762;SDS011;2906;53.282;9.508;2024-03-02T00:10:47;16.80;;;11.30;;
5762;SDS011;2906;53.282;9.508;2024-03-02T00:11:49;20.90;;;11.85;;
5762;SDS011;2906;53.282;9.508;2024-03-02T00:12:51;18.10;;;11.82;;
5762;SDS011;2906;53.282;9.508;2024-03-02T00:13:53;22.00;;;11.68;;
5762;SDS011;2906;53.282;9.508;2024-03-02T00:14:55;19.67;;;12.82;;
5762;SDS011;2906;53.282;9.508;2024-03-02T00:15:57;22.98;;;12.73;;
5762;SDS011;2906;53.282;9.508;2024-03-02T00:17:01;18.08;;;11.50;;
5762;SDS011;2906;53.282;9.508;2024-03-02T00:18:06;20.90;;;11.40;;
5762;SDS011;2906;53.282;9.508;2024-03-02T00:19:08;18.13;;;12.27;;
5762;SDS011;2906;53.282;9.508;2024-03-02T00:20:11;21.48;;;13.38;;
5762;SDS011;2906;53.282;9.508;2024-03-02T00:21:19;18.10;;;11.70;;
5762;SDS011;2906;53.282;9.508;2024-03-02T00:22:22;21.13;;;11.68;;
5762;SDS011;2906;53.282;9.508;2024-03-02T00:23:24;17.30;;;10.82;;
5762;SDS011;2906;53.282;9.508;2024-03-02T00:24:29;18.88;;;12.00;;
5762;SDS011;2906;53.282;9.508;2024-03-02T00:25:40;14.25;;;9.88;;
5762;SDS011;2906;53.282;9.508;2024-03-02T00:26:44;16.05;;;11.10;;
5762;SDS011;2906;53.282;9.508;2024-03-02T00:27:47;16.63;;;10.40;;
5762;SDS011;2906;53.282;9.508;2024-03-02T00:28:49;14.68;;;9.70;;
5762;SDS011;2906;53.282;9.508;2024-03-02T00:29:52;19.23;;;11.10;;
5762;SDS011;2906;53.282;9.508;2024-03-02T00:30:55;21.80;;;11.50;;
5762;SDS011;2906;53.282;9.508;2024-03-02T00:31:57;17.95;;;10.60;;
5762;SDS011;2906;53.282;9.508;2024-03-02T00:33:00;15.57;;;9.90;;
5762;SDS011;2906;53.282;9.508;2024-03-02T00:34:03;19.52;;;11.20;;
5762;SDS011;2906;53.282;9.508;2024-03-02T00:35:07;19.30;;;10.85;;
5762;SDS011;2906;53.282;9.508;2024-03-02T00:36:09;15.98;;;10.20;;
5762;SDS011;2906;53.282;9.508;2024-03-02T00:37:11;17.80;;;11.15;;
5762;SDS011;2906;53.282;9.508;2024-03-02T00:38:13;15.20;;;9.80;;
5762;SDS011;2906;53.282;9.508;2024-03-02T00:39:16;16.58;;;10.57;;
5762;SDS011;2906;53.282;9.508;2024-03-02T00:40:18;18.85;;;10.80;;
5762;SDS011;2906;53.282;9.508;2024-03-02T00:41:21;16.15;;;10.32;;
5762;SDS011;2906;53.282;9.508;2024-03-02T00:42:23;16.58;;;10.73;;
5762;SDS011;2906;53.282;9.508;2024-03-02T00:44:42;15.23;;;10.52;;
5762;SDS011;2906;53.282;9.508;2024-03-02T00:45:44;16.95;;;10.85;;
5762;SDS011;2906;53.282;9.508;2024-03-02T00:46:53;23.23;;;10.52;;
5762;SDS011;2906;53.282;9.508;2024-03-02T00:47:56;18.25;;;10.77;;
5762;SDS011;2906;53.282;9.508;2024-03-02T00:48:59;24.70;;;10.85;;
5762;SDS011;2906;53.282;9.508;2024-03-02T00:50:05;19.33;;;10.70;;
5762;SDS011;2906;53.282;9.508;2024-03-02T00:51:24;20.58;;;12.02;;
5762;SDS011;2906;53.282;9.508;2024-03-02T00:52:31;21.10;;;11.93;;
5762;SDS011;2906;53.282;9.508;2024-03-02T00:53:37;21.95;;;11.38;;
5762;SDS011;2906;53.282;9.508;2024-03-02T00:54:38;27.48;;;11.52;;
5762;SDS011;2906;53.282;9.508;2024-03-02T00:55:41;21.48;;;11.10;;
5762;SDS011;2906;53.282;9.508;2024-03-02T00:56:44;21.80;;;11.48;;
5762;SDS011;2906;53.282;9.508;2024-03-02T00:57:45;20.80;;;11.52;;
5762;SDS011;2906;53.282;9.508;2024-03-02T00:58:48;17.13;;;10.90;;
5762;SDS011;2906;53.282;9.508;2024-03-02T00:59:49;18.25;;;10.85;;
5762;SDS011;2906;53.282;9.508;2024-03-02T01:00:51;20.35;;;12.00;;
5762;SDS011;2906;53.282;9.508;2024-03-02T01:01:53;20.17;;;11.45;;
5762;SDS011;2906;53.282;9.508;2024-03-02T01:02:56;17.90;;;11.10;;
5762;SDS011;2906;53.282;9.508;2024-03-02T01:03:59;25.23;;;13.00;;
5762;SDS011;2906;53.282;9.508;2024-03-02T01:05:02;19.52;;;11.10;;
5762;SDS011;2906;53.282;9.508;2024-03-02T01:06:08;21.67;;;12.48;;
5762;SDS011;2906;53.282;9.508;2024-03-02T01:07:12;22.45;;;12.13;;
5762;SDS011;2906;53.282;9.508;2024-03-02T01:08:14;20.13;;;12.00;;
5762;SDS011;2906;53.282;9.508;2024-03-02T01:09:18;19.73;;;11.18;;
5762;SDS011;2906;53.282;9.508;2024-03-02T01:10:25;19.08;;;11.35;;
5762;SDS011;2906;53.282;9.508;2024-03-02T01:11:28;20.88;;;11.52;;
5762;SDS011;2906;53.282;9.508;2024-03-02T01:12:31;20.65;;;12.55;;
5762;SDS011;2906;53.282;9.508;2024-03-02T01:13:33;25.63;;;11.65;;
5762;SDS011;2906;53.282;9.508;2024-03-02T01:14:35;18.52;;;10.75;;
5762;SDS011;2906;53.282;9.508;2024-03-02T01:15:37;21.10;;;12.75;;
5762;SDS011;2906;53.282;9.508;2024-03-02T01:16:39;25.55;;;13.10;;
5762;SDS011;2906;53.282;9.508;2024-03-02T01:17:40;21.02;;;12.32;;
5762;SDS011;2906;53.282;9.508;2024-03-02T01:18:42;16.15;;;11.48;;
5762;SDS011;2906;53.282;9.508;2024-03-02T01:19:44;24.00;;;12.32;;
5762;SDS011;2906;53.282;9.508;2024-03-02T01:20:46;23.58;;;12.77;;
5762;SDS011;2906;53.282;9.508;2024-03-02T01:21:49;22.10;;;13.30;;
5762;SDS011;2906;53.282;9.508;2024-03-02T01:22:52;21.73;;;12.45;;
5762;SDS011;2906;53.282;9.508;2024-03-02T01:23:53;19.13;;;12.30;;
5762;SDS011;2906;53.282;9.508;2024-03-02T01:24:56;17.88;;;11.10;;
5762;SDS011;2906;53.282;9.508;2024-03-02T01:25:57;23.20;;;11.60;;
5762;SDS011;2906;53.282;9.508;2024-03-02T01:26:58;23.48;;;12.60;;
5762;SDS011;2906;53.282;9.508;2024-03-02T01:28:01;17.52;;;11.05;;
5762;SDS011;2906;53.282;9.508;2024-03-02T01:29:02;19.65;;;12.00;;
5762;SDS011;2906;53.282;9.508;2024-03-02T01:30:05;22.42;;;12.15;;
5762;SDS011;2906;53.282;9.508;2024-03-02T01:31:07;20.02;;;11.73;;
5762;SDS011;2906;53.282;9.508;2024-03-02T01:32:09;24.20;;;13.10;;
5762;SDS011;2906;53.282;9.508;2024-03-02T01:33:10;17.60;;;10.70;;
5762;SDS011;2906;53.282;9.508;2024-03-02T01:34:13;20.02;;;11.90;;
5762;SDS011;2906;53.282;9.508;2024-03-02T01:35:14;22.48;;;12.23;;
5762;SDS011;2906;53.282;9.508;2024-03-02T01:36:16;21.98;;;13.30;;
5762;SDS011;2906;53.282;9.508;2024-03-02T01:37:19;17.50;;;11.35;;
5762;SDS011;2906;53.282;9.508;2024-03-02T01:38:22;19.30;;;11.75;;
5762;SDS011;2906;53.282;9.508;2024-03-02T01:39:23;20.13;;;10.93;;
5762;SDS011;2906;53.282;9.508;2024-03-02T01:40:26;18.92;;;11.70;;
5762;SDS011;2906;53.282;9.508;2024-03-02T01:41:28;22.30;;;12.60;;
5762;SDS011;2906;53.282;9.508;2024-03-02T01:42:30;21.27;;;12.65;;
5762;SDS011;2906;53.282;9.508;2024-03-02T01:43:32;21.58;;;12.38;;
5762;SDS011;2906;53.282;9.508;2024-03-02T01:44:35;19.20;;;12.40;;
5762;SDS011;2906;53.282;9.508;2024-03-02T01:45:36;19.70;;;12.60;;
5762;SDS011;2906;53.282;9.508;2024-03-02T01:46:39;21.50;;;12.45;;
5762;SDS011;2906;53.282;9.508;2024-03-02T01:47:40;18.70;;;12.15;;
5762;SDS011;2906;53.282;9.508;2024-03-02T01:48:43;23.27;;;12.55;;
5762;SDS011;2906;53.282;9.508;2024-03-02T01:49:44;24.33;;;12.95;;
5762;SDS011;2906;53.282;9.508;2024-03-02T01:50:46;23.85;;;12.32;;
5762;SDS011;2906;53.282;9.508;2024-03-02T01:51:48;22.10;;;13.02;;
5762;SDS011;2906;53.282;9.508;2024-03-02T01:52:51;22.60;;;13.10;;
5762;SDS011;2906;53.282;9.508;2024-03-02T01:53:53;20.80;;;12.27;;
5762;SDS011;2906;53.282;9.508;2024-03-02T01:54:55;20.05;;;13.10;;
5762;SDS011;2906;53.282;9.508;2024-03-02T01:55:57;26.45;;;11.95;;
5762;SDS011;2906;53.282;9.508;2024-03-02T01:56:59;16.55;;;11.25;;
5762;SDS011;2906;53.282;9.508;2024-03-02T01:58:01;23.10;;;12.38;;
5762;SDS011;2906;53.282;9.508;2024-03-02T01:59:03;20.10;;;12.30;;
5762;SDS011;2906;53.282;9.508;2024-03-02T02:00:06;22.33;;;13.70;;
5762;SDS011;2906;53.282;9.508;2024-03-02T02:01:09;29.05;;;12.40;;
5762;SDS011;2906;53.282;9.508;2024-03-02T02:02:12;24.38;;;13.60;;
5762;SDS011;2906;53.282;9.508;2024-03-02T02:03:13;22.70;;;13.27;;
5762;SDS011;2906;53.282;9.508;2024-03-02T02:04:15;21.40;;;12.30;;
5762;SDS011;2906;53.282;9.508;2024-03-02T02:05:17;22.73;;;12.55;;
5762;SDS011;2906;53.282;9.508;2024-03-02T02:06:18;22.50;;;13.02;;
5762;SDS011;2906;53.282;9.508;2024-03-02T02:07:21;19.98;;;12.57;;
5762;SDS011;2906;53.282;9.508;2024-03-02T02:08:24;19.35;;;12.30;;
5762;SDS011;2906;53.282;9.508;2024-03-02T02:09:26;21.02;;;12.25;;
5762;SDS011;2906;53.282;9.508;2024-03-02T02:10:36;21.88;;;12.40;;
5762;SDS011;2906;53.282;9.508;2024-03-02T02:11:47;21.00;;;13.40;;
5762;SDS011;2906;53.282;9.508;2024-03-02T02:12:49;20.45;;;12.15;;
5762;SDS011;2906;53.282;9.508;2024-03-02T02:13:55;20.77;;;12.80;;
5762;SDS011;2906;53.282;9.508;2024-03-02T02:14:58;23.50;;;12.88;;
5762;SDS011;2906;53.282;9.508;2024-03-02T02:16:04;18.85;;;12.55;;
5762;SDS011;2906;53.282;9.508;2024-03-02T02:17:07;21.33;;;12.95;;
5762;SDS011;2906;53.282;9.508;2024-03-02T02:18:11;19.50;;;12.55;;
5762;SDS011;2906;53.282;9.508;2024-03-02T02:19:14;26.38;;;13.50;;
5762;SDS011;2906;53.282;9.508;2024-03-02T02:20:16;23.52;;;13.30;;
5762;SDS011;2906;53.282;9.508;2024-03-02T02:21:17;18.33;;;12.32;;
5762;SDS011;2906;53.282;9.508;2024-03-02T02:22:21;22.25;;;12.45;;
5762;SDS011;2906;53.282;9.508;2024-03-02T02:23:22;23.15;;;12.50;;
5762;SDS011;2906;53.282;9.508;2024-03-02T02:24:25;20.73;;;12.52;;
5762;SDS011;2906;53.282;9.508;2024-03-02T02:25:26;23.52;;;12.45;;
5762;SDS011;2906;53.282;9.508;2024-03-02T02:26:29;21.25;;;11.80;;
5762;SDS011;2906;53.282;9.508;2024-03-02T02:27:30;21.30;;;13.25;;
5762;SDS011;2906;53.282;9.508;2024-03-02T02:28:33;19.48;;;11.80;;
5762;SDS011;2906;53.282;9.508;2024-03-02T02:29:35;22.92;;;12.82;;
5762;SDS011;2906;53.282;9.508;2024-03-02T02:30:37;21.60;;;12.65;;
5762;SDS011;2906;53.282;9.508;2024-03-02T02:31:39;23.52;;;12.52;;
5762;SDS011;2906;53.282;9.508;2024-03-02T02:32:41;20.10;;;12.63;;
5762;SDS011;2906;53.282;9.508;2024-03-02T02:33:43;22.45;;;12.63;;
5762;SDS011;2906;53.282;9.508;2024-03-02T02:34:45;23.63;;;12.85;;
5762;SDS011;2906;53.282;9.508;2024-03-02T02:35:47;21.77;;;13.23;;
5762;SDS011;2906;53.282;9.508;2024-03-02T02:36:49;22.88;;;13.60;;
5762;SDS011;2906;53.282;9.508;2024-03-02T02:37:53;24.75;;;11.93;;
5762;SDS011;2906;53.282;9.508;2024-03-02T02:38:55;21.00;;;13.15;;
5762;SDS011;2906;53.282;9.508;2024-03-02T02:40:01;20.58;;;12.45;;
5762;SDS011;2906;53.282;9.508;2024-03-02T02:41:05;20.75;;;13.35;;
5762;SDS011;2906;53.282;9.508;2024-03-02T02:42:09;22.65;;;12.20;;
5762;SDS011;2906;53.282;9.508;2024-03-02T02:43:14;22.33;;;11.98;;
5762;SDS011;2906;53.282;9.508;2024-03-02T02:44:17;22.25;;;12.93;;
5762;SDS011;2906;53.282;9.508;2024-03-02T02:45:18;23.42;;;13.60;;
5762;SDS011;2906;53.282;9.508;2024-03-02T02:46:21;21.13;;;13.02;;
5762;SDS011;2906;53.282;9.508;2024-03-02T02:47:26;19.98;;;12.25;;
5762;SDS011;2906;53.282;9.508;2024-03-02T02:48:29;25.02;;;12.80;;
5762;SDS011;2906;53.282;9.508;2024-03-02T02:49:32;23.05;;;13.30;;
5762;SDS011;2906;53.282;9.508;2024-03-02T02:50:36;20.63;;;13.27;;
5762;SDS011;2906;53.282;9.508;2024-03-02T02:51:38;22.40;;;13.10;;
5762;SDS011;2906;53.282;9.508;2024-03-02T02:52:44;19.70;;;12.32;;
5762;SDS011;2906;53.282;9.508;2024-03-02T02:53:47;25.23;;;12.98;;
5762;SDS011;2906;53.282;9.508;2024-03-02T02:54:51;21.58;;;12.82;;
5762;SDS011;2906;53.282;9.508;2024-03-02T02:55:52;25.98;;;11.98;;
5762;SDS011;2906;53.282;9.508;2024-03-02T02:56:55;24.83;;;12.20;;
5762;SDS011;2906;53.282;9.508;2024-03-02T02:57:56;20.65;;;11.93;;
5762;SDS011;2906;53.282;9.508;2024-03-02T02:58:59;21.75;;;12.98;;
5762;SDS011;2906;53.282;9.508;2024-03-02T03:00:01;21.45;;;13.80;;
5762;SDS011;2906;53.282;9.508;2024-03-02T03:01:10;24.23;;;12.85;;
5762;SDS011;2906;53.282;9.508;2024-03-02T03:02:11;22.27;;;12.23;;
5762;SDS011;2906;53.282;9.508;2024-03-02T03:03:13;22.45;;;13.13;;
5762;SDS011;2906;53.282;9.508;2024-03-02T03:04:15;20.67;;;12.15;;
5762;SDS011;2906;53.282;9.508;2024-03-02T03:05:17;22.90;;;12.75;;
5762;SDS011;2906;53.282;9.508;2024-03-02T03:06:19;24.25;;;12.77;;
5762;SDS011;2906;53.282;9.508;2024-03-02T03:07:22;19.83;;;12.95;;
5762;SDS011;2906;53.282;9.508;2024-03-02T03:08:23;21.40;;;12.98;;
5762;SDS011;2906;53.282;9.508;2024-03-02T03:09:27;17.38;;;11.80;;
5762;SDS011;2906;53.282;9.508;2024-03-02T03:10:29;20.15;;;11.98;;
5762;SDS011;2906;53.282;9.508;2024-03-02T03:11:31;27.02;;;13.38;;
5762;SDS011;2906;53.282;9.508;2024-03-02T03:12:35;21.85;;;13.10;;
5762;SDS011;2906;53.282;9.508;2024-03-02T03:13:36;25.33;;;12.60;;
5762;SDS011;2906;53.282;9.508;2024-03-02T03:14:40;17.73;;;11.98;;
5762;SDS011;2906;53.282;9.508;2024-03-02T03:15:41;22.00;;;12.93;;
5762;SDS011;2906;53.282;9.508;2024-03-02T03:16:46;19.80;;;11.50;;
5762;SDS011;2906;53.282;9.508;2024-03-02T03:17:50;24.13;;;13.30;;
5762;SDS011;2906;53.282;9.508;2024-03-02T03:18:53;20.52;;;12.15;;
5762;SDS011;2906;53.282;9.508;2024-03-02T03:19:55;19.30;;;12.27;;
5762;SDS011;2906;53.282;9.508;2024-03-02T03:20:58;20.25;;;11.68;;
5762;SDS011;2906;53.282;9.508;2024-03-02T03:22:01;18.40;;;12.05;;
5762;SDS011;2906;53.282;9.508;2024-03-02T03:23:06;22.90;;;12.65;;
5762;SDS011;2906;53.282;9.508;2024-03-02T03:24:08;19.83;;;11.85;;
5762;SDS011;2906;53.282;9.508;2024-03-02T03:25:12;18.10;;;12.23;;
5762;SDS011;2906;53.282;9.508;2024-03-02T03:26:15;22.88;;;13.20;;
5762;SDS011;2906;53.282;9.508;2024-03-02T03:27:18;17.50;;;10.77;;
5762;SDS011;2906;53.282;9.508;2024-03-02T03:28:21;17.23;;;11.55;;
5762;SDS011;2906;53.282;9.508;2024-03-02T03:29:24;26.88;;;12.07;;
5762;SDS011;2906;53.282;9.508;2024-03-02T03:30:26;21.52;;;13.40;;
5762;SDS011;2906;53.282;9.508;2024-03-02T03:31:29;22.20;;;12.13;;
5762;SDS011;2906;53.282;9.508;2024-03-02T03:32:31;20.40;;;12.93;;
5762;SDS011;2906;53.282;9.508;2024-03-02T03:33:34;19.23;;;12.35;;
5762;SDS011;2906;53.282;9.508;2024-03-02T03:34:36;20.45;;;12.25;;
5762;SDS011;2906;53.282;9.508;2024-03-02T03:35:38;20.85;;;13.18;;
5762;SDS011;2906;53.282;9.508;2024-03-02T03:36:40;20.10;;;12.38;;
5762;SDS011;2906;53.282;9.508;2024-03-02T03:37:41;20.20;;;11.93;;
5762;SDS011;2906;53.282;9.508;2024-03-02T03:38:44;21.50;;;12.88;;
5762;SDS011;2906;53.282;9.508;2024-03-02T03:39:45;22.15;;;13.00;;
5762;SDS011;2906;53.282;9.508;2024-03-02T03:40:49;20.15;;;12.15;;
5762;SDS011;2906;53.282;9.508;2024-03-02T03:41:50;22.25;;;12.40;;
5762;SDS011;2906;53.282;9.508;2024-03-02T03:42:53;19.48;;;12.57;;
5762;SDS011;2906;53.282;9.508;2024-03-02T03:43:56;19.48;;;12.30;;
5762;SDS011;2906;53.282;9.508;2024-03-02T03:44:58;17.67;;;11.98;;
5762;SDS011;2906;53.282;9.508;2024-03-02T03:46:01;18.67;;;12.45;;
5762;SDS011;2906;53.282;9.508;2024-03-02T03:47:04;23.13;;;13.52;;
5762;SDS011;2906;53.282;9.508;2024-03-02T03:48:05;19.00;;;12.23;;
5762;SDS011;2906;53.282;9.508;2024-03-02T03:49:08;19.45;;;11.63;;
5762;SDS011;2906;53.282;9.508;2024-03-02T03:50:09;24.73;;;12.63;;
5762;SDS011;2906;53.282;9.508;2024-03-02T03:51:12;19.92;;;12.25;;
5762;SDS011;2906;53.282;9.508;2024-03-02T03:52:18;18.75;;;11.73;;
5762;SDS011;2906;53.282;9.508;2024-03-02T03:53:22;20.58;;;12.10;;
5762;SDS011;2906;53.282;9.508;2024-03-02T03:54:25;19.58;;;12.85;;
5762;SDS011;2906;53.282;9.508;2024-03-02T03:55:26;19.77;;;12.25;;
5762;SDS011;2906;53.282;9.508;2024-03-02T03:56:30;21.52;;;13.15;;
5762;SDS011;2906;53.282;9.508;2024-03-02T03:57:31;20.38;;;12.23;;
5762;SDS011;2906;53.282;9.508;2024-03-02T03:58:33;20.70;;;12.20;;
5762;SDS011;2906;53.282;9.508;2024-03-02T03:59:35;22.17;;;12.35;;
5762;SDS011;2906;53.282;9.508;2024-03-02T04:00:37;24.17;;;12.50;;
5762;SDS011;2906;53.282;9.508;2024-03-02T04:01:39;27.00;;;13.15;;
5762;SDS011;2906;53.282;9.508;2024-03-02T04:02:40;18.98;;;12.05;;
5762;SDS011;2906;53.282;9.508;2024-03-02T04:03:43;23.08;;;13.05;;
5762;SDS011;2906;53.282;9.508;2024-03-02T04:04:45;20.55;;;12.23;;
5762;SDS011;2906;53.282;9.508;2024-03-02T04:05:49;19.55;;;12.60;;
5762;SDS011;2906;53.282;9.508;2024-03-02T04:06:52;18.90;;;11.82;;
5762;SDS011;2906;53.282;9.508;2024-03-02T04:07:56;20.45;;;12.05;;
5762;SDS011;2906;53.282;9.508;2024-03-02T04:09:05;20.55;;;11.75;;
5762;SDS011;2906;53.282;9.508;2024-03-02T04:10:09;21.55;;;13.20;;
5762;SDS011;2906;53.282;9.508;2024-03-02T04:11:17;25.10;;;12.65;;
5762;SDS011;2906;53.282;9.508;2024-03-02T04:12:23;21.15;;;12.98;;
5762;SDS011;2906;53.282;9.508;2024-03-02T04:13:25;17.88;;;11.85;;
5762;SDS011;2906;53.282;9.508;2024-03-02T04:14:29;21.27;;;12.13;;
5762;SDS011;2906;53.282;9.508;2024-03-02T04:15:30;23.70;;;13.18;;
5762;SDS011;2906;53.282;9.508;2024-03-02T04:16:33;21.15;;;12.95;;
5762;SDS011;2906;53.282;9.508;2024-03-02T04:17:35;19.13;;;12.70;;
5762;SDS011;2906;53.282;9.508;2024-03-02T04:18:39;20.38;;;12.43;;
5762;SDS011;2906;53.282;9.508;2024-03-02T04:19:43;19.40;;;12.25;;
5762;SDS011;2906;53.282;9.508;2024-03-02T04:20:46;17.75;;;12.00;;
5762;SDS011;2906;53.282;9.508;2024-03-02T04:21:50;22.40;;;13.65;;
5762;SDS011;2906;53.282;9.508;2024-03-02T04:22:53;17.92;;;12.55;;
5762;SDS011;2906;53.282;9.508;2024-03-02T04:23:56;20.08;;;12.88;;
5762;SDS011;2906;53.282;9.508;2024-03-02T04:24:59;20.20;;;12.95;;
5762;SDS011;2906;53.282;9.508;2024-03-02T04:26:00;21.15;;;12.88;;
5762;SDS011;2906;53.282;9.508;2024-03-02T04:27:03;21.27;;;13.30;;
5762;SDS011;2906;53.282;9.508;2024-03-02T04:28:05;22.08;;;14.02;;
5762;SDS011;2906;53.282;9.508;2024-03-02T04:29:09;22.45;;;12.32;;
5762;SDS011;2906;53.282;9.508;2024-03-02T04:30:26;22.85;;;14.00;;
5762;SDS011;2906;53.282;9.508;2024-03-02T04:31:29;18.95;;;12.13;;
5762;SDS011;2906;53.282;9.508;2024-03-02T04:32:30;23.73;;;13.88;;
5762;SDS011;2906;53.282;9.508;2024-03-02T04:33:33;21.38;;;13.80;;
5762;SDS011;2906;53.282;9.508;2024-03-02T04:34:34;27.35;;;14.10;;
5762;SDS011;2906;53.282;9.508;2024-03-02T04:35:36;23.80;;;13.98;;
5762;SDS011;2906;53.282;9.508;2024-03-02T04:36:38;22.73;;;13.82;;
5762;SDS011;2906;53.282;9.508;2024-03-02T04:37:40;22.33;;;14.60;;
5762;SDS011;2906;53.282;9.508;2024-03-02T04:38:42;24.67;;;13.65;;
5762;SDS011;2906;53.282;9.508;2024-03-02T04:39:45;23.95;;;14.85;;
5762;SDS011;2906;53.282;9.508;2024-03-02T04:40:46;25.30;;;13.80;;
5762;SDS011;2906;53.282;9.508;2024-03-02T04:41:48;22.15;;;14.18;;
5762;SDS011;2906;53.282;9.508;2024-03-02T04:42:50;27.27;;;15.10;;
5762;SDS011;2906;53.282;9.508;2024-03-02T04:43:55;19.85;;;12.95;;
5762;SDS011;2906;53.282;9.508;2024-03-02T04:44:57;26.17;;;14.65;;
5762;SDS011;2906;53.282;9.508;2024-03-02T04:45:59;21.98;;;13.80;;
5762;SDS011;2906;53.282;9.508;2024-03-02T04:47:01;23.88;;;13.90;;
5762;SDS011;2906;53.282;9.508;2024-03-02T04:48:03;24.40;;;14.20;;
5762;SDS011;2906;53.282;9.508;2024-03-02T04:49:05;27.40;;;14.00;;
5762;SDS011;2906;53.282;9.508;2024-03-02T04:50:07;22.35;;;13.73;;
5762;SDS011;2906;53.282;9.508;2024-03-02T04:51:09;23.88;;;15.23;;
5762;SDS011;2906;53.282;9.508;2024-03-02T04:52:11;24.05;;;14.00;;
5762;SDS011;2906;53.282;9.508;2024-03-02T04:53:13;27.95;;;15.05;;
5762;SDS011;2906;53.282;9.508;2024-03-02T04:54:15;30.77;;;16.80;;
5762;SDS011;2906;53.282;9.508;2024-03-02T04:55:17;22.17;;;14.07;;
5762;SDS011;2906;53.282;9.508;2024-03-02T04:56:37;25.10;;;14.80;;
5762;SDS011;2906;53.282;9.508;2024-03-02T04:57:44;24.25;;;14.15;;
5762;SDS011;2906;53.282;9.508;2024-03-02T04:58:46;22.55;;;14.07;;
5762;SDS011;2906;53.282;9.508;2024-03-02T04:59:50;29.50;;;14.45;;
5762;SDS011;2906;53.282;9.508;2024-03-02T05:00:51;28.13;;;15.55;;
5762;SDS011;2906;53.282;9.508;2024-03-02T05:01:54;22.77;;;14.70;;
5762;SDS011;2906;53.282;9.508;2024-03-02T05:02:55;24.90;;;14.70;;
5762;SDS011;2906;53.282;9.508;2024-03-02T05:03:58;33.92;;;15.50;;
5762;SDS011;2906;53.282;9.508;2024-03-02T05:04:59;26.10;;;14.70;;
5762;SDS011;2906;53.282;9.508;2024-03-02T05:06:03;24.95;;;15.15;;
5762;SDS011;2906;53.282;9.508;2024-03-02T05:07:06;33.63;;;15.75;;
5762;SDS011;2906;53.282;9.508;2024-03-02T05:08:10;25.38;;;15.00;;
5762;SDS011;2906;53.282;9.508;2024-03-02T05:09:13;23.38;;;14.80;;
5762;SDS011;2906;53.282;9.508;2024-03-02T05:10:21;25.75;;;15.93;;
5762;SDS011;2906;53.282;9.508;2024-03-02T05:11:23;24.02;;;14.57;;
5762;SDS011;2906;53.282;9.508;2024-03-02T05:12:51;28.40;;;14.82;;
5762;SDS011;2906;53.282;9.508;2024-03-02T05:14:00;25.73;;;15.25;;
5762;SDS011;2906;53.282;9.508;2024-03-02T05:15:07;28.80;;;15.80;;
5762;SDS011;2906;53.282;9.508;2024-03-02T05:16:10;27.05;;;15.52;;
5762;SDS011;2906;53.282;9.508;2024-03-02T05:17:13;22.38;;;14.32;;
5762;SDS011;2906;53.282;9.508;2024-03-02T05:18:19;24.23;;;15.35;;
5762;SDS011;2906;53.282;9.508;2024-03-02T05:19:21;29.25;;;16.42;;
5762;SDS011;2906;53.282;9.508;2024-03-02T05:20:25;28.27;;;14.93;;
5762;SDS011;2906;53.282;9.508;2024-03-02T05:21:27;27.67;;;15.82;;
5762;SDS011;2906;53.282;9.508;2024-03-02T05:22:30;29.75;;;15.70;;
5762;SDS011;2906;53.282;9.508;2024-03-02T05:23:34;25.27;;;15.55;;
5762;SDS011;2906;53.282;9.508;2024-03-02T05:24:37;26.70;;;15.75;;
5762;SDS011;2906;53.282;9.508;2024-03-02T05:25:39;26.80;;;16.33;;
5762;SDS011;2906;53.282;9.508;2024-03-02T05:26:43;27.02;;;16.00;;
5762;SDS011;2906;53.282;9.508;2024-03-02T05:27:48;27.50;;;16.02;;
5762;SDS011;2906;53.282;9.508;2024-03-02T05:28:50;28.70;;;15.13;;
5762;SDS011;2906;53.282;9.508;2024-03-02T05:29:51;27.63;;;15.13;;
5762;SDS011;2906;53.282;9.508;2024-03-02T05:30:55;27.25;;;15.13;;
5762;SDS011;2906;53.282;9.508;2024-03-02T05:31:57;27.95;;;15.55;;
5762;SDS011;2906;53.282;9.508;2024-03-02T05:32:59;25.77;;;16.13;;
5762;SDS011;2906;53.282;9.508;2024-03-02T05:34:10;28.52;;;16.95;;
5762;SDS011;2906;53.282;9.508;2024-03-02T05:35:11;27.90;;;16.35;;
5762;SDS011;2906;53.282;9.508;2024-03-02T05:36:13;28.42;;;17.38;;
5762;SDS011;2906;53.282;9.508;2024-03-02T05:37:15;29.30;;;16.67;;
5762;SDS011;2906;53.282;9.508;2024-03-02T05:38:17;29.60;;;16.95;;
5762;SDS011;2906;53.282;9.508;2024-03-02T05:39:19;34.67;;;16.17;;
5762;SDS011;2906;53.282;9.508;2024-03-02T05:40:21;29.98;;;16.67;;
5762;SDS011;2906;53.282;9.508;2024-03-02T05:41:22;32.50;;;15.80;;
5762;SDS011;2906;53.282;9.508;2024-03-02T05:42:24;29.33;;;16.38;;
5762;SDS011;2906;53.282;9.508;2024-03-02T05:43:27;33.55;;;17.23;;
5762;SDS011;2906;53.282;9.508;2024-03-02T05:44:29;30.77;;;16.40;;
5762;SDS011;2906;53.282;9.508;2024-03-02T05:45:32;26.75;;;16.60;;
5762;SDS011;2906;53.282;9.508;2024-03-02T05:46:35;31.60;;;16.55;;
5762;SDS011;2906;53.282;9.508;2024-03-02T05:47:37;35.90;;;17.05;;
5762;SDS011;2906;53.282;9.508;2024-03-02T05:48:42;32.25;;;17.70;;
5762;SDS011;2906;53.282;9.508;2024-03-02T05:49:47;28.27;;;16.20;;
5762;SDS011;2906;53.282;9.508;2024-03-02T05:50:49;31.33;;;17.10;;
5762;SDS011;2906;53.282;9.508;2024-03-02T05:51:51;32.63;;;17.38;;
5762;SDS011;2906;53.282;9.508;2024-03-02T05:52:53;31.42;;;16.98;;
5762;SDS011;2906;53.282;9.508;2024-03-02T05:53:56;31.55;;;16.90;;
5762;SDS011;2906;53.282;9.508;2024-03-02T05:54:58;33.55;;;17.05;;
5762;SDS011;2906;53.282;9.508;2024-03-02T05:56:00;36.40;;;17.35;;
5762;SDS011;2906;53.282;9.508;2024-03-02T05:57:01;32.72;;;18.80;;
5762;SDS011;2906;53.282;9.508;2024-03-02T05:58:17;31.90;;;17.42;;
5762;SDS011;2906;53.282;9.508;2024-03-02T05:59:27;31.05;;;16.80;;
5762;SDS011;2906;53.282;9.508;2024-03-02T06:00:30;35.78;;;18.55;;
5762;SDS011;2906;53.282;9.508;2024-03-02T06:01:31;35.38;;;18.40;;
5762;SDS011;2906;53.282;9.508;2024-03-02T06:02:34;31.38;;;17.23;;
5762;SDS011;2906;53.282;9.508;2024-03-02T06:03:38;30.98;;;17.15;;
5762;SDS011;2906;53.282;9.508;2024-03-02T06:04:39;31.10;;;18.52;;
5762;SDS011;2906;53.282;9.508;2024-03-02T06:05:41;30.67;;;16.00;;
5762;SDS011;2906;53.282;9.508;2024-03-02T06:06:43;32.15;;;17.55;;
5762;SDS011;2906;53.282;9.508;2024-03-02T06:07:46;34.50;;;17.85;;
5762;SDS011;2906;53.282;9.508;2024-03-02T06:08:48;38.63;;;17.70;;
5762;SDS011;2906;53.282;9.508;2024-03-02T06:09:51;34.70;;;17.75;;
5762;SDS011;2906;53.282;9.508;2024-03-02T06:10:54;29.85;;;17.95;;
5762;SDS011;2906;53.282;9.508;2024-03-02T06:11:56;32.33;;;16.90;;
5762;SDS011;2906;53.282;9.508;2024-03-02T06:13:00;28.77;;;17.80;;
5762;SDS011;2906;53.282;9.508;2024-03-02T06:14:03;32.53;;;18.33;;
5762;SDS011;2906;53.282;9.508;2024-03-02T06:15:08;39.67;;;18.75;;
5762;SDS011;2906;53.282;9.508;2024-03-02T06:16:12;29.63;;;17.83;;
5762;SDS011;2906;53.282;9.508;2024-03-02T06:17:16;30.77;;;17.67;;
5762;SDS011;2906;53.282;9.508;2024-03-02T06:18:21;34.08;;;18.65;;
5762;SDS011;2906;53.282;9.508;2024-03-02T06:19:24;39.88;;;18.45;;
5762;SDS011;2906;53.282;9.508;2024-03-02T06:20:27;32.40;;;17.73;;
5762;SDS011;2906;53.282;9.508;2024-03-02T06:21:31;31.15;;;18.02;;